sensor_id;sensor_type;location;lat;lon;timestamp;pressure;altitude;pressure_sealevel;temperature;humidity
75438;BME280;64015;49.392;15.582;2023-08-07T00:00:29;94753.81;;;12.39;100.00
75438;BME280;64015;49.392;15.582;2023-08-07T00:03:15;94755.38;;;12.40;100.00
75438;BME280;64015;49.392;15.582;2023-08-07T00:05:52;94754.25;;;12.32;100.00
75438;BME280;64015;49.392;15.582;2023-08-07T00:08:18;94760.78;;;12.34;100.00
75438;BME280;64015;49.392;15.582;2023-08-07T00:10:44;94778.50;;;12.34;100.00
75438;BME280;64015;49.392;15.582;2023-08-07T00:13:16;94745.81;;;12.30;100.00
75438;BME280;64015;49.392;15.582;2023-08-07T00:15:42;94755.63;;;12.29;100.00
75438;BME280;64015;49.392;15.582;2023-08-07T00:18:07;94763.38;;;12.26;100.00
75438;BME280;64015;49.392;15.582;2023-08-07T00:20:33;94767.88;;;12.25;100.00
75438;BME280;64015;49.392;15.582;2023-08-07T00:23:14;94775.31;;;12.23;100.00
75438;BME280;64015;49.392;15.582;2023-08-07T00:25:40;94756.47;;;12.16;100.00
75438;BME280;64015;49.392;15.582;2023-08-07T00:28:06;94772.75;;;12.10;100.00
75438;BME280;64015;49.392;15.582;2023-08-07T00:30:32;94748.97;;;12.10;100.00
75438;BME280;64015;49.392;15.582;2023-08-07T00:33:01;94751.13;;;12.08;100.00
75438;BME280;64015;49.392;15.582;2023-08-07T00:35:29;94760.59;;;12.09;100.00
75438;BME280;64015;49.392;15.582;2023-08-07T00:37:58;94768.53;;;12.09;100.00
75438;BME280;64015;49.392;15.582;2023-08-07T00:40:24;94781.47;;;12.10;100.00
75438;BME280;64015;49.392;15.582;2023-08-07T00:42:50;94765.91;;;12.09;100.00
75438;BME280;64015;49.392;15.582;2023-08-07T00:45:15;94776.47;;;12.09;100.00
75438;BME280;64015;49.392;15.582;2023-08-07T00:47:46;94765.41;;;12.07;100.00
75438;BME280;64015;49.392;15.582;2023-08-07T00:50:12;94770.09;;;12.10;100.00
75438;BME280;64015;49.392;15.582;2023-08-07T00:52:38;94783.44;;;12.05;100.00
75438;BME280;64015;49.392;15.582;2023-08-07T00:55:04;94777.91;;;11.92;100.00
75438;BME280;64015;49.392;15.582;2023-08-07T00:57:39;94777.66;;;11.80;100.00
75438;BME280;64015;49.392;15.582;2023-08-07T01:00:05;94788.88;;;11.72;100.00
75438;BME280;64015;49.392;15.582;2023-08-07T01:02:33;94782.25;;;11.61;100.00
75438;BME280;64015;49.392;15.582;2023-08-07T01:04:59;94786.50;;;11.48;100.00
75438;BME280;64015;49.392;15.582;2023-08-07T01:07:25;94774.47;;;11.42;100.00
75438;BME280;64015;49.392;15.582;2023-08-07T01:10:00;94780.75;;;11.33;100.00
75438;BME280;64015;49.392;15.582;2023-08-07T01:12:30;94782.00;;;11.21;100.00
75438;BME280;64015;49.392;15.582;2023-08-07T01:15:12;94796.41;;;11.15;100.00
75438;BME280;64015;49.392;15.582;2023-08-07T01:17:46;94788.69;;;11.05;100.00
75438;BME280;64015;49.392;15.582;2023-08-07T01:20:12;94782.72;;;11.00;100.00
75438;BME280;64015;49.392;15.582;2023-08-07T01:22:38;94789.16;;;10.94;100.00
75438;BME280;64015;49.392;15.582;2023-08-07T01:25:04;94785.25;;;10.91;100.00
75438;BME280;64015;49.392;15.582;2023-08-07T01:27:35;94783.69;;;10.90;100.00
75438;BME280;64015;49.392;15.582;2023-08-07T01:35:55;94797.97;;;10.89;100.00
75438;BME280;64015;49.392;15.582;2023-08-07T01:38:24;94782.41;;;10.88;100.00
75438;BME280;64015;49.392;15.582;2023-08-07T01:41:03;94784.09;;;10.83;100.00
75438;BME280;64015;49.392;15.582;2023-08-07T01:43:32;94794.25;;;10.90;100.00
75438;BME280;64015;49.392;15.582;2023-08-07T01:46:11;94798.75;;;10.90;100.00
75438;BME280;64015;49.392;15.582;2023-08-07T01:48:49;94782.63;;;10.91;100.00
75438;BME280;64015;49.392;15.582;2023-08-07T01:51:15;94788.69;;;10.92;100.00
75438;BME280;64015;49.392;15.582;2023-08-07T01:53:41;94783.50;;;10.87;100.00
75438;BME280;64015;49.392;15.582;2023-08-07T01:56:06;94795.03;;;10.91;100.00
75438;BME280;64015;49.392;15.582;2023-08-07T01:58:50;94800.50;;;10.94;100.00
75438;BME280;64015;49.392;15.582;2023-08-07T02:01:15;94783.31;;;10.83;100.00
75438;BME280;64015;49.392;15.582;2023-08-07T02:03:41;94789.53;;;10.87;100.00
75438;BME280;64015;49.392;15.582;2023-08-07T02:06:16;94791.41;;;10.87;100.00
75438;BME280;64015;49.392;15.582;2023-08-07T02:08:42;94783.78;;;10.85;100.00
75438;BME280;64015;49.392;15.582;2023-08-07T02:11:07;94783.88;;;10.80;100.00
75438;BME280;64015;49.392;15.582;2023-08-07T02:13:34;94786.63;;;10.75;100.00
75438;BME280;64015;49.392;15.582;2023-08-07T02:16:00;94790.41;;;10.69;100.00
75438;BME280;64015;49.392;15.582;2023-08-07T02:18:26;94812.28;;;10.69;100.00
75438;BME280;64015;49.392;15.582;2023-08-07T02:20:51;94794.63;;;10.70;100.00
75438;BME280;64015;49.392;15.582;2023-08-07T02:23:17;94796.47;;;10.69;100.00
75438;BME280;64015;49.392;15.582;2023-08-07T02:25:43;94791.28;;;10.64;100.00
75438;BME280;64015;49.392;15.582;2023-08-07T02:28:11;94796.75;;;10.68;100.00
75438;BME280;64015;49.392;15.582;2023-08-07T02:30:39;94789.63;;;10.55;100.00
75438;BME280;64015;49.392;15.582;2023-08-07T02:33:05;94789.81;;;10.58;100.00
75438;BME280;64015;49.392;15.582;2023-08-07T02:35:31;94788.34;;;10.52;100.00
75438;BME280;64015;49.392;15.582;2023-08-07T02:37:57;94807.69;;;10.61;100.00
75438;BME280;64015;49.392;15.582;2023-08-07T02:40:22;94789.91;;;10.53;100.00
75438;BME280;64015;49.392;15.582;2023-08-07T02:42:48;94787.06;;;10.50;100.00
75438;BME280;64015;49.392;15.582;2023-08-07T02:45:14;94785.59;;;10.43;100.00
75438;BME280;64015;49.392;15.582;2023-08-07T02:47:41;94794.84;;;10.41;100.00
75438;BME280;64015;49.392;15.582;2023-08-07T02:50:07;94793.00;;;10.41;100.00
75438;BME280;64015;49.392;15.582;2023-08-07T02:52:33;94786.16;;;10.40;100.00
75438;BME280;64015;49.392;15.582;2023-08-07T02:54:58;94795.63;;;10.41;100.00
75438;BME280;64015;49.392;15.582;2023-08-07T02:57:24;94788.88;;;10.35;100.00
75438;BME280;64015;49.392;15.582;2023-08-07T02:59:50;94779.63;;;10.38;100.00
75438;BME280;64015;49.392;15.582;2023-08-07T03:02:16;94784.59;;;10.39;100.00
75438;BME280;64015;49.392;15.582;2023-08-07T03:04:41;94800.00;;;10.32;100.00
75438;BME280;64015;49.392;15.582;2023-08-07T03:07:07;94799.44;;;10.35;100.00
75438;BME280;64015;49.392;15.582;2023-08-07T03:09:33;94794.94;;;10.36;100.00
75438;BME280;64015;49.392;15.582;2023-08-07T03:11:59;94795.44;;;10.38;100.00
75438;BME280;64015;49.392;15.582;2023-08-07T03:14:37;94794.66;;;10.37;100.00
75438;BME280;64015;49.392;15.582;2023-08-07T03:17:03;94786.25;;;10.35;100.00
75438;BME280;64015;49.392;15.582;2023-08-07T03:19:29;94791.03;;;10.33;100.00
75438;BME280;64015;49.392;15.582;2023-08-07T03:21:55;94801.66;;;10.28;100.00
75438;BME280;64015;49.392;15.582;2023-08-07T03:24:21;94798.66;;;10.35;100.00
75438;BME280;64015;49.392;15.582;2023-08-07T03:26:55;94802.06;;;10.35;100.00
75438;BME280;64015;49.392;15.582;2023-08-07T03:29:24;94804.97;;;10.34;100.00
75438;BME280;64015;49.392;15.582;2023-08-07T03:31:52;94813.97;;;10.33;100.00
75438;BME280;64015;49.392;15.582;2023-08-07T03:34:18;94811.53;;;10.36;100.00
75438;BME280;64015;49.392;15.582;2023-08-07T03:36:44;94795.44;;;10.38;100.00
75438;BME280;64015;49.392;15.582;2023-08-07T03:39:10;94789.44;;;10.32;100.00
75438;BME280;64015;49.392;15.582;2023-08-07T03:41:38;94804.75;;;10.30;100.00
75438;BME280;64015;49.392;15.582;2023-08-07T03:44:03;94808.97;;;10.31;100.00
75438;BME280;64015;49.392;15.582;2023-08-07T03:46:35;94819.22;;;10.33;100.00
75438;BME280;64015;49.392;15.582;2023-08-07T03:49:01;94814.06;;;10.28;100.00
75438;BME280;64015;49.392;15.582;2023-08-07T03:51:36;94804.09;;;10.38;100.00
75438;BME280;64015;49.392;15.582;2023-08-07T03:54:02;94826.91;;;10.29;100.00
75438;BME280;64015;49.392;15.582;2023-08-07T03:56:28;94823.31;;;10.25;100.00
75438;BME280;64015;49.392;15.582;2023-08-07T03:58:58;94810.25;;;10.34;100.00
75438;BME280;64015;49.392;15.582;2023-08-07T04:01:24;94816.88;;;10.31;100.00
75438;BME280;64015;49.392;15.582;2023-08-07T04:03:50;94813.28;;;10.27;100.00
75438;BME280;64015;49.392;15.582;2023-08-07T04:06:31;94829.00;;;10.32;100.00
75438;BME280;64015;49.392;15.582;2023-08-07T04:08:57;94831.41;;;10.29;100.00
75438;BME280;64015;49.392;15.582;2023-08-07T04:11:23;94825.84;;;10.30;100.00
75438;BME280;64015;49.392;15.582;2023-08-07T04:13:48;94831.06;;;10.35;100.00
75438;BME280;64015;49.392;15.582;2023-08-07T04:16:14;94849.56;;;10.30;100.00
75438;BME280;64015;49.392;15.582;2023-08-07T04:18:40;94834.91;;;10.24;100.00
75438;BME280;64015;49.392;15.582;2023-08-07T04:21:06;94833.56;;;10.27;100.00
75438;BME280;64015;49.392;15.582;2023-08-07T04:23:32;94836.84;;;10.37;100.00
75438;BME280;64015;49.392;15.582;2023-08-07T04:25:59;94841.59;;;10.35;100.00
75438;BME280;64015;49.392;15.582;2023-08-07T04:28:24;94835.53;;;10.35;100.00
75438;BME280;64015;49.392;15.582;2023-08-07T04:30:51;94835.31;;;10.31;100.00
75438;BME280;64015;49.392;15.582;2023-08-07T04:33:20;94826.06;;;10.34;100.00
75438;BME280;64015;49.392;15.582;2023-08-07T04:35:49;94830.00;;;10.36;100.00
75438;BME280;64015;49.392;15.582;2023-08-07T04:38:15;94836.63;;;10.34;100.00
75438;BME280;64015;49.392;15.582;2023-08-07T04:41:00;94834.59;;;10.44;100.00
75438;BME280;64015;49.392;15.582;2023-08-07T04:43:26;94838.88;;;10.40;100.00
75438;BME280;64015;49.392;15.582;2023-08-07T04:46:02;94832.03;;;10.39;100.00
75438;BME280;64015;49.392;15.582;2023-08-07T04:48:28;94833.53;;;10.45;100.00
75438;BME280;64015;49.392;15.582;2023-08-07T04:50:53;94845.81;;;10.36;100.00
75438;BME280;64015;49.392;15.582;2023-08-07T04:53:19;94835.84;;;10.33;100.00
75438;BME280;64015;49.392;15.582;2023-08-07T04:55:54;94839.38;;;10.42;100.00
75438;BME280;64015;49.392;15.582;2023-08-07T04:58:38;94842.41;;;10.50;100.00
75438;BME280;64015;49.392;15.582;2023-08-07T05:01:04;94845.06;;;10.50;100.00
75438;BME280;64015;49.392;15.582;2023-08-07T05:03:42;94843.88;;;10.42;100.00
75438;BME280;64015;49.392;15.582;2023-08-07T05:06:07;94840.66;;;10.45;100.00
75438;BME280;64015;49.392;15.582;2023-08-07T05:08:33;94845.56;;;10.52;100.00
75438;BME280;64015;49.392;15.582;2023-08-07T05:11:11;94835.66;;;10.43;100.00
75438;BME280;64015;49.392;15.582;2023-08-07T05:13:37;94847.50;;;10.46;100.00
75438;BME280;64015;49.392;15.582;2023-08-07T05:16:03;94844.78;;;10.51;100.00
75438;BME280;64015;49.392;15.582;2023-08-07T05:18:29;94841.06;;;10.52;100.00
75438;BME280;64015;49.392;15.582;2023-08-07T05:21:09;94844.38;;;10.58;100.00
75438;BME280;64015;49.392;15.582;2023-08-07T05:23:44;94846.63;;;10.51;100.00
75438;BME280;64015;49.392;15.582;2023-08-07T05:26:31;94849.91;;;10.42;100.00
75438;BME280;64015;49.392;15.582;2023-08-07T05:29:05;94852.41;;;10.53;100.00
75438;BME280;64015;49.392;15.582;2023-08-07T05:31:32;94851.91;;;10.51;100.00
75438;BME280;64015;49.392;15.582;2023-08-07T05:33:58;94853.38;;;10.57;100.00
75438;BME280;64015;49.392;15.582;2023-08-07T05:36:26;94853.69;;;10.55;100.00
75438;BME280;64015;49.392;15.582;2023-08-07T05:38:52;94849.19;;;10.56;100.00
75438;BME280;64015;49.392;15.582;2023-08-07T05:41:18;94856.66;;;10.48;100.00
75438;BME280;64015;49.392;15.582;2023-08-07T05:43:45;94857.75;;;10.47;100.00
75438;BME280;64015;49.392;15.582;2023-08-07T05:46:23;94855.19;;;10.42;100.00
75438;BME280;64015;49.392;15.582;2023-08-07T05:48:54;94861.53;;;10.41;100.00
75438;BME280;64015;49.392;15.582;2023-08-07T05:51:20;94864.91;;;10.28;100.00
75438;BME280;64015;49.392;15.582;2023-08-07T05:53:46;94875.94;;;10.30;100.00
75438;BME280;64015;49.392;15.582;2023-08-07T05:56:11;94878.09;;;10.28;100.00
75438;BME280;64015;49.392;15.582;2023-08-07T05:59:25;62277.91;;;-142.60;100.00
75438;BME280;64015;49.392;15.582;2023-08-07T06:02:50;62277.91;;;-142.60;100.00
75438;BME280;64015;49.392;15.582;2023-08-07T06:06:24;62277.91;;;-142.60;100.00
75438;BME280;64015;49.392;15.582;2023-08-07T06:09:50;62277.91;;;-142.60;100.00
75438;BME280;64015;49.392;15.582;2023-08-07T06:13:17;62277.91;;;-142.60;100.00
75438;BME280;64015;49.392;15.582;2023-08-07T06:16:42;62277.91;;;-142.60;100.00
75438;BME280;64015;49.392;15.582;2023-08-07T06:20:07;62277.91;;;-142.60;100.00
75438;BME280;64015;49.392;15.582;2023-08-07T06:23:33;62277.91;;;-142.60;100.00
75438;BME280;64015;49.392;15.582;2023-08-07T06:26:58;62277.91;;;-142.60;100.00
75438;BME280;64015;49.392;15.582;2023-08-07T06:30:22;62277.91;;;-142.60;100.00
75438;BME280;64015;49.392;15.582;2023-08-07T06:33:55;62277.91;;;-142.60;100.00
75438;BME280;64015;49.392;15.582;2023-08-07T06:37:34;62277.91;;;-142.60;100.00
75438;BME280;64015;49.392;15.582;2023-08-07T06:40:59;62277.91;;;-142.60;100.00
75438;BME280;64015;49.392;15.582;2023-08-07T06:44:26;62277.91;;;-142.60;100.00
75438;BME280;64015;49.392;15.582;2023-08-07T06:48:12;62277.91;;;-142.60;100.00
75438;BME280;64015;49.392;15.582;2023-08-07T06:56:01;62277.91;;;-142.60;100.00
75438;BME280;64015;49.392;15.582;2023-08-07T06:59:26;62277.91;;;-142.60;100.00
75438;BME280;64015;49.392;15.582;2023-08-07T07:02:50;62277.91;;;-142.60;100.00
75438;BME280;64015;49.392;15.582;2023-08-07T07:06:15;62277.91;;;-142.60;100.00
75438;BME280;64015;49.392;15.582;2023-08-07T07:09:42;62277.91;;;-142.60;100.00
75438;BME280;64015;49.392;15.582;2023-08-07T07:13:06;62277.91;;;-142.60;100.00
75438;BME280;64015;49.392;15.582;2023-08-07T07:16:39;62277.91;;;-142.60;100.00
75438;BME280;64015;49.392;15.582;2023-08-07T07:20:09;62277.91;;;-142.60;100.00
75438;BME280;64015;49.392;15.582;2023-08-07T07:23:38;62277.91;;;-142.60;100.00
75438;BME280;64015;49.392;15.582;2023-08-07T07:27:02;62277.91;;;-142.60;100.00
75438;BME280;64015;49.392;15.582;2023-08-07T07:30:36;62277.91;;;-142.60;100.00
75438;BME280;64015;49.392;15.582;2023-08-07T07:34:02;62277.91;;;-142.60;100.00
75438;BME280;64015;49.392;15.582;2023-08-07T07:37:33;62277.91;;;-142.60;100.00
75438;BME280;64015;49.392;15.582;2023-08-07T07:40:57;62277.91;;;-142.60;100.00
75438;BME280;64015;49.392;15.582;2023-08-07T07:44:22;62277.91;;;-142.60;100.00
75438;BME280;64015;49.392;15.582;2023-08-07T07:47:46;62277.91;;;-142.60;100.00
75438;BME280;64015;49.392;15.582;2023-08-07T07:51:10;62277.91;;;-142.60;100.00
75438;BME280;64015;49.392;15.582;2023-08-07T07:54:34;62277.91;;;-142.60;100.00
75438;BME280;64015;49.392;15.582;2023-08-07T07:58:20;62277.91;;;-142.60;100.00
75438;BME280;64015;49.392;15.582;2023-08-07T08:01:51;62277.91;;;-142.60;100.00
75438;BME280;64015;49.392;15.582;2023-08-07T08:05:15;62277.91;;;-142.60;100.00
75438;BME280;64015;49.392;15.582;2023-08-07T08:08:40;62277.91;;;-142.60;100.00
75438;BME280;64015;49.392;15.582;2023-08-07T08:12:19;62277.91;;;-142.60;100.00
75438;BME280;64015;49.392;15.582;2023-08-07T08:15:44;62277.91;;;-142.60;100.00
75438;BME280;64015;49.392;15.582;2023-08-07T08:19:20;62277.91;;;-142.60;100.00
75438;BME280;64015;49.392;15.582;2023-08-07T08:22:45;62277.91;;;-142.60;100.00
75438;BME280;64015;49.392;15.582;2023-08-07T08:26:12;62277.91;;;-142.60;100.00
75438;BME280;64015;49.392;15.582;2023-08-07T08:29:37;62277.91;;;-142.60;100.00
75438;BME280;64015;49.392;15.582;2023-08-07T08:33:01;62277.91;;;-142.60;100.00
75438;BME280;64015;49.392;15.582;2023-08-07T08:36:25;62277.91;;;-142.60;100.00
75438;BME280;64015;49.392;15.582;2023-08-07T08:39:50;62277.91;;;-142.60;100.00
75438;BME280;64015;49.392;15.582;2023-08-07T08:43:20;62277.91;;;-142.60;100.00
75438;BME280;64015;49.392;15.582;2023-08-07T08:46:45;62277.91;;;-142.60;100.00
75438;BME280;64015;49.392;15.582;2023-08-07T08:50:13;62277.91;;;-142.60;100.00
75438;BME280;64015;49.392;15.582;2023-08-07T08:53:42;62277.91;;;-142.60;100.00
75438;BME280;64015;49.392;15.582;2023-08-07T08:57:09;62277.91;;;-142.60;100.00
75438;BME280;64015;49.392;15.582;2023-08-07T09:00:50;62277.91;;;-142.60;100.00
75438;BME280;64015;49.392;15.582;2023-08-07T09:04:16;62277.91;;;-142.60;100.00
75438;BME280;64015;49.392;15.582;2023-08-07T09:07:45;62277.91;;;-142.60;100.00
75438;BME280;64015;49.392;15.582;2023-08-07T09:11:11;62277.91;;;-142.60;100.00
75438;BME280;64015;49.392;15.582;2023-08-07T09:14:36;62277.91;;;-142.60;100.00
75438;BME280;64015;49.392;15.582;2023-08-07T09:18:04;62277.91;;;-142.60;100.00
75438;BME280;64015;49.392;15.582;2023-08-07T09:21:32;62277.91;;;-142.60;100.00
75438;BME280;64015;49.392;15.582;2023-08-07T09:24:56;62277.91;;;-142.60;100.00
75438;BME280;64015;49.392;15.582;2023-08-07T09:28:24;62277.91;;;-142.60;100.00
75438;BME280;64015;49.392;15.582;2023-08-07T09:31:50;62277.91;;;-142.60;100.00
75438;BME280;64015;49.392;15.582;2023-08-07T09:35:20;62277.91;;;-142.60;100.00
75438;BME280;64015;49.392;15.582;2023-08-07T09:38:51;62277.91;;;-142.60;100.00
75438;BME280;64015;49.392;15.582;2023-08-07T09:42:18;62277.91;;;-142.60;100.00
75438;BME280;64015;49.392;15.582;2023-08-07T09:45:42;62277.91;;;-142.60;100.00
75438;BME280;64015;49.392;15.582;2023-08-07T09:49:07;62277.91;;;-142.60;100.00
75438;BME280;64015;49.392;15.582;2023-08-07T09:52:41;62277.91;;;-142.60;100.00
75438;BME280;64015;49.392;15.582;2023-08-07T09:56:05;62277.91;;;-142.60;100.00
75438;BME280;64015;49.392;15.582;2023-08-07T09:59:41;62277.91;;;-142.60;100.00
75438;BME280;64015;49.392;15.582;2023-08-07T10:03:06;62277.91;;;-142.60;100.00
75438;BME280;64015;49.392;15.582;2023-08-07T10:06:31;62277.91;;;-142.60;100.00
75438;BME280;64015;49.392;15.582;2023-08-07T10:09:55;62277.91;;;-142.60;100.00
75438;BME280;64015;49.392;15.582;2023-08-07T10:13:21;62277.91;;;-142.60;100.00
75438;BME280;64015;49.392;15.582;2023-08-07T10:16:45;62277.91;;;-142.60;100.00
75438;BME280;64015;49.392;15.582;2023-08-07T10:20:11;62277.91;;;-142.60;100.00
75438;BME280;64015;49.392;15.582;2023-08-07T10:23:36;62277.91;;;-142.60;100.00
75438;BME280;64015;49.392;15.582;2023-08-07T10:27:04;62277.91;;;-142.60;100.00
75438;BME280;64015;49.392;15.582;2023-08-07T10:30:30;62277.91;;;-142.60;100.00
75438;BME280;64015;49.392;15.582;2023-08-07T10:33:56;62277.91;;;-142.60;100.00
75438;BME280;64015;49.392;15.582;2023-08-07T10:37:40;62277.91;;;-142.60;100.00
75438;BME280;64015;49.392;15.582;2023-08-07T10:41:09;62277.91;;;-142.60;100.00
75438;BME280;64015;49.392;15.582;2023-08-07T10:44:47;62277.91;;;-142.60;100.00
75438;BME280;64015;49.392;15.582;2023-08-07T10:48:46;62277.91;;;-142.60;100.00
75438;BME280;64015;49.392;15.582;2023-08-07T10:52:15;62277.91;;;-142.60;100.00
75438;BME280;64015;49.392;15.582;2023-08-07T10:55:47;62277.91;;;-142.60;100.00
75438;BME280;64015;49.392;15.582;2023-08-07T10:59:21;62277.91;;;-142.60;100.00
75438;BME280;64015;49.392;15.582;2023-08-07T11:02:53;62277.91;;;-142.60;100.00
75438;BME280;64015;49.392;15.582;2023-08-07T11:06:17;62277.91;;;-142.60;100.00
75438;BME280;64015;49.392;15.582;2023-08-07T11:09:42;62277.91;;;-142.60;100.00
75438;BME280;64015;49.392;15.582;2023-08-07T11:13:06;62277.91;;;-142.60;100.00
75438;BME280;64015;49.392;15.582;2023-08-07T11:16:30;62277.91;;;-142.60;100.00
75438;BME280;64015;49.392;15.582;2023-08-07T11:19:55;62277.91;;;-142.60;100.00
75438;BME280;64015;49.392;15.582;2023-08-07T11:23:24;62277.91;;;-142.60;100.00
75438;BME280;64015;49.392;15.582;2023-08-07T11:26:48;62277.91;;;-142.60;100.00
75438;BME280;64015;49.392;15.582;2023-08-07T11:30:16;62277.91;;;-142.60;100.00
75438;BME280;64015;49.392;15.582;2023-08-07T11:33:40;62277.91;;;-142.60;100.00
75438;BME280;64015;49.392;15.582;2023-08-07T11:37:14;62277.91;;;-142.60;100.00
75438;BME280;64015;49.392;15.582;2023-08-07T11:40:42;62277.91;;;-142.60;100.00
75438;BME280;64015;49.392;15.582;2023-08-07T11:44:10;62277.91;;;-142.60;100.00
75438;BME280;64015;49.392;15.582;2023-08-07T11:47:34;62277.91;;;-142.60;100.00
75438;BME280;64015;49.392;15.582;2023-08-07T11:51:00;62277.91;;;-142.60;100.00
75438;BME280;64015;49.392;15.582;2023-08-07T11:54:26;62277.91;;;-142.60;100.00
75438;BME280;64015;49.392;15.582;2023-08-07T11:57:50;62277.91;;;-142.60;100.00
75438;BME280;64015;49.392;15.582;2023-08-07T12:01:24;62277.91;;;-142.60;100.00
75438;BME280;64015;49.392;15.582;2023-08-07T12:04:57;62277.91;;;-142.60;100.00
75438;BME280;64015;49.392;15.582;2023-08-07T12:08:23;62277.91;;;-142.60;100.00
75438;BME280;64015;49.392;15.582;2023-08-07T12:11:49;62277.91;;;-142.60;100.00
75438;BME280;64015;49.392;15.582;2023-08-07T12:15:17;62277.91;;;-142.60;100.00
75438;BME280;64015;49.392;15.582;2023-08-07T12:18:44;62277.91;;;-142.60;100.00
75438;BME280;64015;49.392;15.582;2023-08-07T12:22:12;62277.91;;;-142.60;100.00
75438;BME280;64015;49.392;15.582;2023-08-07T12:25:36;62277.91;;;-142.60;100.00
75438;BME280;64015;49.392;15.582;2023-08-07T12:29:00;62277.91;;;-142.60;100.00
75438;BME280;64015;49.392;15.582;2023-08-07T12:32:25;62277.91;;;-142.60;100.00
75438;BME280;64015;49.392;15.582;2023-08-07T12:35:49;62277.91;;;-142.60;100.00
75438;BME280;64015;49.392;15.582;2023-08-07T12:39:13;62277.91;;;-142.60;100.00
75438;BME280;64015;49.392;15.582;2023-08-07T12:42:38;62277.91;;;-142.60;100.00
75438;BME280;64015;49.392;15.582;2023-08-07T12:46:03;62277.91;;;-142.60;100.00
75438;BME280;64015;49.392;15.582;2023-08-07T12:49:27;62277.91;;;-142.60;100.00
75438;BME280;64015;49.392;15.582;2023-08-07T12:52:52;62277.91;;;-142.60;100.00
75438;BME280;64015;49.392;15.582;2023-08-07T12:56:16;62277.91;;;-142.60;100.00
75438;BME280;64015;49.392;15.582;2023-08-07T12:59:40;62277.91;;;-142.60;100.00
75438;BME280;64015;49.392;15.582;2023-08-07T13:03:04;62277.91;;;-142.60;100.00
75438;BME280;64015;49.392;15.582;2023-08-07T13:06:29;62277.91;;;-142.60;100.00
75438;BME280;64015;49.392;15.582;2023-08-07T13:09:53;62277.91;;;-142.60;100.00
75438;BME280;64015;49.392;15.582;2023-08-07T13:13:19;62277.91;;;-142.60;100.00
75438;BME280;64015;49.392;15.582;2023-08-07T13:16:43;62277.91;;;-142.60;100.00
75438;BME280;64015;49.392;15.582;2023-08-07T13:20:08;62277.91;;;-142.60;100.00
75438;BME280;64015;49.392;15.582;2023-08-07T13:23:33;62277.91;;;-142.60;100.00
75438;BME280;64015;49.392;15.582;2023-08-07T13:27:13;62277.91;;;-142.60;100.00
75438;BME280;64015;49.392;15.582;2023-08-07T13:30:38;62277.91;;;-142.60;100.00
75438;BME280;64015;49.392;15.582;2023-08-07T13:34:02;62277.91;;;-142.60;100.00
75438;BME280;64015;49.392;15.582;2023-08-07T13:37:34;62277.91;;;-142.60;100.00
75438;BME280;64015;49.392;15.582;2023-08-07T13:40:58;62277.91;;;-142.60;100.00
75438;BME280;64015;49.392;15.582;2023-08-07T13:44:23;62277.91;;;-142.60;100.00
75438;BME280;64015;49.392;15.582;2023-08-07T13:47:47;62277.91;;;-142.60;100.00
75438;BME280;64015;49.392;15.582;2023-08-07T13:51:11;62277.91;;;-142.60;100.00
75438;BME280;64015;49.392;15.582;2023-08-07T13:54:36;62277.91;;;-142.60;100.00
75438;BME280;64015;49.392;15.582;2023-08-07T13:58:00;62277.91;;;-142.60;100.00
75438;BME280;64015;49.392;15.582;2023-08-07T14:01:24;62277.91;;;-142.60;100.00
75438;BME280;64015;49.392;15.582;2023-08-07T14:04:48;62277.91;;;-142.60;100.00
75438;BME280;64015;49.392;15.582;2023-08-07T14:08:13;62277.91;;;-142.60;100.00
75438;BME280;64015;49.392;15.582;2023-08-07T14:11:37;62277.91;;;-142.60;100.00
75438;BME280;64015;49.392;15.582;2023-08-07T14:15:14;62277.91;;;-142.60;100.00
75438;BME280;64015;49.392;15.582;2023-08-07T14:18:40;62277.91;;;-142.60;100.00
75438;BME280;64015;49.392;15.582;2023-08-07T14:22:04;62277.91;;;-142.60;100.00
75438;BME280;64015;49.392;15.582;2023-08-07T14:25:28;62277.91;;;-142.60;100.00
75438;BME280;64015;49.392;15.582;2023-08-07T14:29:10;62277.91;;;-142.60;100.00
75438;BME280;64015;49.392;15.582;2023-08-07T14:32:40;62277.91;;;-142.60;100.00
75438;BME280;64015;49.392;15.582;2023-08-07T14:36:07;62277.91;;;-142.60;100.00
75438;BME280;64015;49.392;15.582;2023-08-07T14:39:31;62277.91;;;-142.60;100.00
75438;BME280;64015;49.392;15.582;2023-08-07T14:42:55;62277.91;;;-142.60;100.00
75438;BME280;64015;49.392;15.582;2023-08-07T14:46:29;62277.91;;;-142.60;100.00
75438;BME280;64015;49.392;15.582;2023-08-07T14:49:59;62277.91;;;-142.60;100.00
75438;BME280;64015;49.392;15.582;2023-08-07T14:53:23;62277.91;;;-142.60;100.00
75438;BME280;64015;49.392;15.582;2023-08-07T14:55:50;95375.97;;;17.04;69.66
75438;BME280;64015;49.392;15.582;2023-08-07T14:58:16;95389.78;;;16.37;70.22
75438;BME280;64015;49.392;15.582;2023-08-07T15:00:45;95421.22;;;15.61;73.56
75438;BME280;64015;49.392;15.582;2023-08-07T15:03:16;95387.03;;;15.46;74.92
75438;BME280;64015;49.392;15.582;2023-08-07T15:05:42;95400.91;;;15.65;74.63
75438;BME280;64015;49.392;15.582;2023-08-07T15:08:08;95401.63;;;16.05;73.69
75438;BME280;64015;49.392;15.582;2023-08-07T15:10:34;95397.59;;;16.16;72.10
75438;BME280;64015;49.392;15.582;2023-08-07T15:13:00;95392.31;;;15.77;74.33
75438;BME280;64015;49.392;15.582;2023-08-07T15:15:27;95408.78;;;14.94;77.12
75438;BME280;64015;49.392;15.582;2023-08-07T15:17:58;95399.44;;;14.52;80.97